sensor_id;sensor_type;location;lat;lon;timestamp;P1;P2;P0
56069;PMS5003;41944;52.078;-0.058;2023-08-06T00:00:29;4;3;
56069;PMS5003;41944;52.078;-0.058;2023-08-06T00:02:56;4;4;
56069;PMS5003;41944;52.078;-0.058;2023-08-06T00:05:23;5;5;
56069;PMS5003;41944;52.078;-0.058;2023-08-06T00:07:50;3;2;
56069;PMS5003;41944;52.078;-0.058;2023-08-06T00:10:18;2;2;
56069;PMS5003;41944;52.078;-0.058;2023-08-06T00:12:45;3;3;
56069;PMS5003;41944;52.078;-0.058;2023-08-06T00:15:12;5;3;
56069;PMS5003;41944;52.078;-0.058;2023-08-06T00:17:39;5;4;
56069;PMS5003;41944;52.078;-0.058;2023-08-06T00:20:07;4;4;
56069;PMS5003;41944;52.078;-0.058;2023-08-06T00:22:35;7;4;
56069;PMS5003;41944;52.078;-0.058;2023-08-06T00:25:04;5;5;
56069;PMS5003;41944;52.078;-0.058;2023-08-06T00:27:33;6;5;
56069;PMS5003;41944;52.078;-0.058;2023-08-06T00:30:00;7;4;
56069;PMS5003;41944;52.078;-0.058;2023-08-06T00:32:26;4;4;
56069;PMS5003;41944;52.078;-0.058;2023-08-06T00:34:53;3;3;
56069;PMS5003;41944;52.078;-0.058;2023-08-06T00:37:20;4;4;
56069;PMS5003;41944;52.078;-0.058;2023-08-06T00:39:47;4;3;
56069;PMS5003;41944;52.078;-0.058;2023-08-06T00:42:14;3;3;
56069;PMS5003;41944;52.078;-0.058;2023-08-06T00:44:41;7;6;
56069;PMS5003;41944;52.078;-0.058;2023-08-06T00:47:08;3;3;
56069;PMS5003;41944;52.078;-0.058;2023-08-06T00:49:36;4;4;
56069;PMS5003;41944;52.078;-0.058;2023-08-06T00:52:05;5;5;
56069;PMS5003;41944;52.078;-0.058;2023-08-06T00:54:34;5;5;
56069;PMS5003;41944;52.078;-0.058;2023-08-06T00:57:02;6;5;
56069;PMS5003;41944;52.078;-0.058;2023-08-06T00:59:31;4;3;
56069;PMS5003;41944;52.078;-0.058;2023-08-06T01:01:58;6;4;
56069;PMS5003;41944;52.078;-0.058;2023-08-06T01:04:25;5;4;
56069;PMS5003;41944;52.078;-0.058;2023-08-06T01:06:55;5;4;
56069;PMS5003;41944;52.078;-0.058;2023-08-06T01:09:31;4;4;
56069;PMS5003;41944;52.078;-0.058;2023-08-06T01:12:06;5;5;
56069;PMS5003;41944;52.078;-0.058;2023-08-06T01:14:45;3;3;
56069;PMS5003;41944;52.078;-0.058;2023-08-06T01:17:18;7;7;
56069;PMS5003;41944;52.078;-0.058;2023-08-06T01:19:46;10;5;
56069;PMS5003;41944;52.078;-0.058;2023-08-06T01:22:13;6;5;
56069;PMS5003;41944;52.078;-0.058;2023-08-06T01:24:40;7;6;
56069;PMS5003;41944;52.078;-0.058;2023-08-06T01:27:14;6;6;
56069;PMS5003;41944;52.078;-0.058;2023-08-06T01:29:50;7;5;
56069;PMS5003;41944;52.078;-0.058;2023-08-06T01:32:23;8;8;
56069;PMS5003;41944;52.078;-0.058;2023-08-06T01:34:52;8;6;
56069;PMS5003;41944;52.078;-0.058;2023-08-06T01:37:22;7;6;
56069;PMS5003;41944;52.078;-0.058;2023-08-06T01:39:50;6;5;
56069;PMS5003;41944;52.078;-0.058;2023-08-06T01:42:17;8;7;
56069;PMS5003;41944;52.078;-0.058;2023-08-06T01:44:43;8;5;
56069;PMS5003;41944;52.078;-0.058;2023-08-06T01:47:11;9;7;
56069;PMS5003;41944;52.078;-0.058;2023-08-06T01:49:38;7;6;
56069;PMS5003;41944;52.078;-0.058;2023-08-06T01:52:05;6;6;
56069;PMS5003;41944;52.078;-0.058;2023-08-06T01:54:34;6;6;
56069;PMS5003;41944;52.078;-0.058;2023-08-06T01:57:01;4;4;
56069;PMS5003;41944;52.078;-0.058;2023-08-06T01:59:28;8;3;
56069;PMS5003;41944;52.078;-0.058;2023-08-06T02:01:55;10;8;
56069;PMS5003;41944;52.078;-0.058;2023-08-06T02:04:22;6;6;
56069;PMS5003;41944;52.078;-0.058;2023-08-06T02:06:49;9;6;
56069;PMS5003;41944;52.078;-0.058;2023-08-06T02:09:16;7;5;
56069;PMS5003;41944;52.078;-0.058;2023-08-06T02:11:43;4;4;
56069;PMS5003;41944;52.078;-0.058;2023-08-06T02:14:10;7;5;
56069;PMS5003;41944;52.078;-0.058;2023-08-06T02:16:37;5;4;
56069;PMS5003;41944;52.078;-0.058;2023-08-06T02:19:04;7;6;
56069;PMS5003;41944;52.078;-0.058;2023-08-06T02:21:32;6;5;
56069;PMS5003;41944;52.078;-0.058;2023-08-06T02:23:59;5;5;
56069;PMS5003;41944;52.078;-0.058;2023-08-06T02:26:26;7;6;
56069;PMS5003;41944;52.078;-0.058;2023-08-06T02:28:53;6;5;
56069;PMS5003;41944;52.078;-0.058;2023-08-06T02:31:19;5;5;
56069;PMS5003;41944;52.078;-0.058;2023-08-06T02:33:46;5;5;
56069;PMS5003;41944;52.078;-0.058;2023-08-06T02:36:13;8;5;
56069;PMS5003;41944;52.078;-0.058;2023-08-06T02:38:40;4;4;
56069;PMS5003;41944;52.078;-0.058;2023-08-06T02:41:07;5;5;
56069;PMS5003;41944;52.078;-0.058;2023-08-06T02:43:34;10;6;
56069;PMS5003;41944;52.078;-0.058;2023-08-06T02:46:01;5;5;
56069;PMS5003;41944;52.078;-0.058;2023-08-06T02:48:28;5;5;
56069;PMS5003;41944;52.078;-0.058;2023-08-06T02:50:57;5;4;
56069;PMS5003;41944;52.078;-0.058;2023-08-06T02:53:25;8;7;
56069;PMS5003;41944;52.078;-0.058;2023-08-06T02:55:53;7;6;
56069;PMS5003;41944;52.078;-0.058;2023-08-06T02:58:20;5;5;
56069;PMS5003;41944;52.078;-0.058;2023-08-06T03:00:46;7;6;
56069;PMS5003;41944;52.078;-0.058;2023-08-06T03:03:25;5;4;
56069;PMS5003;41944;52.078;-0.058;2023-08-06T03:05:52;4;4;
56069;PMS5003;41944;52.078;-0.058;2023-08-06T03:08:19;6;5;
56069;PMS5003;41944;52.078;-0.058;2023-08-06T03:10:46;5;5;
56069;PMS5003;41944;52.078;-0.058;2023-08-06T03:13:13;6;6;
56069;PMS5003;41944;52.078;-0.058;2023-08-06T03:15:40;8;7;
56069;PMS5003;41944;52.078;-0.058;2023-08-06T03:18:07;5;5;
56069;PMS5003;41944;52.078;-0.058;2023-08-06T03:20:34;5;5;
56069;PMS5003;41944;52.078;-0.058;2023-08-06T03:23:02;7;6;
56069;PMS5003;41944;52.078;-0.058;2023-08-06T03:25:29;4;4;
56069;PMS5003;41944;52.078;-0.058;2023-08-06T03:27:56;5;5;
56069;PMS5003;41944;52.078;-0.058;2023-08-06T03:30:23;6;6;
56069;PMS5003;41944;52.078;-0.058;2023-08-06T03:32:50;7;6;
56069;PMS5003;41944;52.078;-0.058;2023-08-06T03:35:16;5;5;
56069;PMS5003;41944;52.078;-0.058;2023-08-06T03:37:43;7;6;
56069;PMS5003;41944;52.078;-0.058;2023-08-06T03:40:10;6;6;
56069;PMS5003;41944;52.078;-0.058;2023-08-06T03:42:37;5;5;
56069;PMS5003;41944;52.078;-0.058;2023-08-06T03:45:05;4;4;
56069;PMS5003;41944;52.078;-0.058;2023-08-06T03:47:33;7;5;
56069;PMS5003;41944;52.078;-0.058;2023-08-06T03:50:00;6;6;
56069;PMS5003;41944;52.078;-0.058;2023-08-06T03:52:26;6;4;
56069;PMS5003;41944;52.078;-0.058;2023-08-06T03:54:53;3;3;
56069;PMS5003;41944;52.078;-0.058;2023-08-06T03:57:20;3;3;
56069;PMS5003;41944;52.078;-0.058;2023-08-06T03:59:47;6;6;
56069;PMS5003;41944;52.078;-0.058;2023-08-06T04:02:14;5;4;
56069;PMS5003;41944;52.078;-0.058;2023-08-06T04:04:41;3;3;
56069;PMS5003;41944;52.078;-0.058;2023-08-06T04:07:09;7;5;
56069;PMS5003;41944;52.078;-0.058;2023-08-06T04:09:43;4;4;
56069;PMS5003;41944;52.078;-0.058;2023-08-06T04:12:19;5;5;
56069;PMS5003;41944;52.078;-0.058;2023-08-06T04:14:46;4;4;
56069;PMS5003;41944;52.078;-0.058;2023-08-06T04:17:12;5;5;
56069;PMS5003;41944;52.078;-0.058;2023-08-06T04:19:39;7;4;
56069;PMS5003;41944;52.078;-0.058;2023-08-06T04:22:06;4;3;
56069;PMS5003;41944;52.078;-0.058;2023-08-06T04:24:33;6;6;
56069;PMS5003;41944;52.078;-0.058;2023-08-06T04:27:00;4;4;
56069;PMS5003;41944;52.078;-0.058;2023-08-06T04:29:27;4;3;
56069;PMS5003;41944;52.078;-0.058;2023-08-06T04:31:54;5;5;
56069;PMS5003;41944;52.078;-0.058;2023-08-06T04:34:21;6;6;
56069;PMS5003;41944;52.078;-0.058;2023-08-06T04:36:48;4;4;
56069;PMS5003;41944;52.078;-0.058;2023-08-06T04:39:14;7;6;
56069;PMS5003;41944;52.078;-0.058;2023-08-06T04:41:41;10;7;
56069;PMS5003;41944;52.078;-0.058;2023-08-06T04:44:08;9;7;
56069;PMS5003;41944;52.078;-0.058;2023-08-06T04:46:35;5;5;
56069;PMS5003;41944;52.078;-0.058;2023-08-06T04:49:02;6;5;
56069;PMS5003;41944;52.078;-0.058;2023-08-06T04:51:30;3;3;
56069;PMS5003;41944;52.078;-0.058;2023-08-06T04:53:57;6;6;
56069;PMS5003;41944;52.078;-0.058;2023-08-06T04:56:25;9;5;
56069;PMS5003;41944;52.078;-0.058;2023-08-06T04:58:52;4;4;
56069;PMS5003;41944;52.078;-0.058;2023-08-06T05:01:19;5;4;
56069;PMS5003;41944;52.078;-0.058;2023-08-06T05:03:46;5;5;
56069;PMS5003;41944;52.078;-0.058;2023-08-06T05:06:14;8;5;
56069;PMS5003;41944;52.078;-0.058;2023-08-06T05:08:41;5;5;
56069;PMS5003;41944;52.078;-0.058;2023-08-06T05:11:08;4;4;
56069;PMS5003;41944;52.078;-0.058;2023-08-06T05:13:35;7;5;
56069;PMS5003;41944;52.078;-0.058;2023-08-06T05:16:03;4;4;
56069;PMS5003;41944;52.078;-0.058;2023-08-06T05:18:30;6;5;
56069;PMS5003;41944;52.078;-0.058;2023-08-06T05:20:57;6;5;
56069;PMS5003;41944;52.078;-0.058;2023-08-06T05:23:24;6;5;
56069;PMS5003;41944;52.078;-0.058;2023-08-06T05:25:51;6;6;
56069;PMS5003;41944;52.078;-0.058;2023-08-06T05:28:18;8;5;
56069;PMS5003;41944;52.078;-0.058;2023-08-06T05:30:45;7;6;
56069;PMS5003;41944;52.078;-0.058;2023-08-06T05:33:12;7;5;
56069;PMS5003;41944;52.078;-0.058;2023-08-06T05:35:40;6;6;
56069;PMS5003;41944;52.078;-0.058;2023-08-06T05:38:08;5;5;
56069;PMS5003;41944;52.078;-0.058;2023-08-06T05:40:35;5;4;
56069;PMS5003;41944;52.078;-0.058;2023-08-06T05:43:03;5;5;
56069;PMS5003;41944;52.078;-0.058;2023-08-06T05:45:30;6;6;
56069;PMS5003;41944;52.078;-0.058;2023-08-06T05:47:57;7;5;
56069;PMS5003;41944;52.078;-0.058;2023-08-06T05:50:24;5;5;
56069;PMS5003;41944;52.078;-0.058;2023-08-06T05:52:51;5;5;
56069;PMS5003;41944;52.078;-0.058;2023-08-06T05:55:18;7;5;
56069;PMS5003;41944;52.078;-0.058;2023-08-06T05:57:46;6;5;
56069;PMS5003;41944;52.078;-0.058;2023-08-06T06:00:13;5;3;
56069;PMS5003;41944;52.078;-0.058;2023-08-06T06:02:41;7;5;
56069;PMS5003;41944;52.078;-0.058;2023-08-06T06:05:08;5;4;
56069;PMS5003;41944;52.078;-0.058;2023-08-06T06:07:35;5;5;
56069;PMS5003;41944;52.078;-0.058;2023-08-06T06:10:02;9;8;
56069;PMS5003;41944;52.078;-0.058;2023-08-06T06:12:30;5;5;
56069;PMS5003;41944;52.078;-0.058;2023-08-06T06:14:57;4;4;
56069;PMS5003;41944;52.078;-0.058;2023-08-06T06:17:24;9;6;
56069;PMS5003;41944;52.078;-0.058;2023-08-06T06:19:51;7;5;
56069;PMS5003;41944;52.078;-0.058;2023-08-06T06:22:18;4;4;
56069;PMS5003;41944;52.078;-0.058;2023-08-06T06:24:45;6;4;
56069;PMS5003;41944;52.078;-0.058;2023-08-06T06:27:12;6;6;
56069;PMS5003;41944;52.078;-0.058;2023-08-06T06:29:39;4;4;
56069;PMS5003;41944;52.078;-0.058;2023-08-06T06:32:06;5;5;
56069;PMS5003;41944;52.078;-0.058;2023-08-06T06:34:33;6;5;
56069;PMS5003;41944;52.078;-0.058;2023-08-06T06:37:02;9;5;
56069;PMS5003;41944;52.078;-0.058;2023-08-06T06:39:30;3;3;
56069;PMS5003;41944;52.078;-0.058;2023-08-06T06:41:57;6;6;
56069;PMS5003;41944;52.078;-0.058;2023-08-06T06:44:23;4;4;
56069;PMS5003;41944;52.078;-0.058;2023-08-06T06:46:50;4;3;
56069;PMS5003;41944;52.078;-0.058;2023-08-06T06:49:17;3;3;
56069;PMS5003;41944;52.078;-0.058;2023-08-06T06:51:44;7;6;
56069;PMS5003;41944;52.078;-0.058;2023-08-06T06:54:11;6;4;
56069;PMS5003;41944;52.078;-0.058;2023-08-06T06:56:38;3;3;
56069;PMS5003;41944;52.078;-0.058;2023-08-06T06:59:05;4;4;
56069;PMS5003;41944;52.078;-0.058;2023-08-06T07:01:32;4;4;
56069;PMS5003;41944;52.078;-0.058;2023-08-06T07:03:59;6;4;
56069;PMS5003;41944;52.078;-0.058;2023-08-06T07:06:26;5;4;
56069;PMS5003;41944;52.078;-0.058;2023-08-06T07:08:53;3;3;
56069;PMS5003;41944;52.078;-0.058;2023-08-06T07:11:20;4;4;
56069;PMS5003;41944;52.078;-0.058;2023-08-06T07:13:47;5;3;
56069;PMS5003;41944;52.078;-0.058;2023-08-06T07:16:14;5;4;
56069;PMS5003;41944;52.078;-0.058;2023-08-06T07:18:40;4;4;
56069;PMS5003;41944;52.078;-0.058;2023-08-06T07:21:07;3;3;
56069;PMS5003;41944;52.078;-0.058;2023-08-06T07:23:35;3;3;
56069;PMS5003;41944;52.078;-0.058;2023-08-06T07:26:02;9;4;
56069;PMS5003;41944;52.078;-0.058;2023-08-06T07:28:30;6;4;
56069;PMS5003;41944;52.078;-0.058;2023-08-06T07:30:56;3;3;
56069;PMS5003;41944;52.078;-0.058;2023-08-06T07:33:23;6;4;
56069;PMS5003;41944;52.078;-0.058;2023-08-06T07:35:50;5;3;
56069;PMS5003;41944;52.078;-0.058;2023-08-06T07:38:17;5;5;
56069;PMS5003;41944;52.078;-0.058;2023-08-06T07:40:44;5;3;
56069;PMS5003;41944;52.078;-0.058;2023-08-06T07:43:12;4;3;
56069;PMS5003;41944;52.078;-0.058;2023-08-06T07:45:39;4;4;
56069;PMS5003;41944;52.078;-0.058;2023-08-06T07:48:06;4;4;
56069;PMS5003;41944;52.078;-0.058;2023-08-06T07:50:33;4;4;
56069;PMS5003;41944;52.078;-0.058;2023-08-06T07:53:00;4;4;
56069;PMS5003;41944;52.078;-0.058;2023-08-06T07:55:27;3;3;
56069;PMS5003;41944;52.078;-0.058;2023-08-06T07:57:54;2;2;
56069;PMS5003;41944;52.078;-0.058;2023-08-06T08:00:20;4;4;
56069;PMS5003;41944;52.078;-0.058;2023-08-06T08:02:47;2;2;
56069;PMS5003;41944;52.078;-0.058;2023-08-06T08:05:14;3;3;
56069;PMS5003;41944;52.078;-0.058;2023-08-06T08:07:41;2;2;
56069;PMS5003;41944;52.078;-0.058;2023-08-06T08:10:08;3;3;
56069;PMS5003;41944;52.078;-0.058;2023-08-06T08:12:36;2;2;
56069;PMS5003;41944;52.078;-0.058;2023-08-06T08:15:03;3;3;
56069;PMS5003;41944;52.078;-0.058;2023-08-06T08:17:31;5;5;
56069;PMS5003;41944;52.078;-0.058;2023-08-06T08:19:58;3;3;
56069;PMS5003;41944;52.078;-0.058;2023-08-06T08:22:25;4;4;
56069;PMS5003;41944;52.078;-0.058;2023-08-06T08:24:52;2;2;
56069;PMS5003;41944;52.078;-0.058;2023-08-06T08:27:18;4;3;
56069;PMS5003;41944;52.078;-0.058;2023-08-06T08:29:45;1;1;
56069;PMS5003;41944;52.078;-0.058;2023-08-06T08:32:12;5;3;
56069;PMS5003;41944;52.078;-0.058;2023-08-06T08:34:39;6;3;
56069;PMS5003;41944;52.078;-0.058;2023-08-06T08:37:06;3;3;
56069;PMS5003;41944;52.078;-0.058;2023-08-06T08:39:34;3;2;
56069;PMS5003;41944;52.078;-0.058;2023-08-06T08:42:00;3;3;
56069;PMS5003;41944;52.078;-0.058;2023-08-06T08:44:28;4;3;
56069;PMS5003;41944;52.078;-0.058;2023-08-06T08:46:56;1;1;
56069;PMS5003;41944;52.078;-0.058;2023-08-06T08:49:24;3;1;
56069;PMS5003;41944;52.078;-0.058;2023-08-06T08:51:52;2;2;
56069;PMS5003;41944;52.078;-0.058;2023-08-06T08:54:21;2;2;
56069;PMS5003;41944;52.078;-0.058;2023-08-06T08:56:50;3;3;
56069;PMS5003;41944;52.078;-0.058;2023-08-06T08:59:17;4;2;
56069;PMS5003;41944;52.078;-0.058;2023-08-06T09:01:44;2;2;
56069;PMS5003;41944;52.078;-0.058;2023-08-06T09:04:14;4;3;
56069;PMS5003;41944;52.078;-0.058;2023-08-06T09:06:42;6;6;
56069;PMS5003;41944;52.078;-0.058;2023-08-06T09:09:13;3;3;
56069;PMS5003;41944;52.078;-0.058;2023-08-06T09:11:47;2;2;
56069;PMS5003;41944;52.078;-0.058;2023-08-06T09:14:15;3;2;
56069;PMS5003;41944;52.078;-0.058;2023-08-06T09:16:43;3;2;
56069;PMS5003;41944;52.078;-0.058;2023-08-06T09:19:12;3;3;
56069;PMS5003;41944;52.078;-0.058;2023-08-06T09:21:40;2;2;
56069;PMS5003;41944;52.078;-0.058;2023-08-06T09:24:08;3;2;
56069;PMS5003;41944;52.078;-0.058;2023-08-06T09:26:36;2;2;
56069;PMS5003;41944;52.078;-0.058;2023-08-06T09:29:04;4;4;
56069;PMS5003;41944;52.078;-0.058;2023-08-06T09:31:32;2;2;
56069;PMS5003;41944;52.078;-0.058;2023-08-06T09:34:00;3;2;
56069;PMS5003;41944;52.078;-0.058;2023-08-06T09:36:28;3;2;
56069;PMS5003;41944;52.078;-0.058;2023-08-06T09:38:54;2;2;
56069;PMS5003;41944;52.078;-0.058;2023-08-06T09:41:26;0;0;
56069;PMS5003;41944;52.078;-0.058;2023-08-06T09:43:53;3;3;
56069;PMS5003;41944;52.078;-0.058;2023-08-06T09:46:20;4;3;
56069;PMS5003;41944;52.078;-0.058;2023-08-06T09:48:47;3;3;
56069;PMS5003;41944;52.078;-0.058;2023-08-06T09:51:16;3;3;
56069;PMS5003;41944;52.078;-0.058;2023-08-06T09:53:43;2;2;
56069;PMS5003;41944;52.078;-0.058;2023-08-06T09:56:11;1;1;
56069;PMS5003;41944;52.078;-0.058;2023-08-06T09:58:40;4;2;
56069;PMS5003;41944;52.078;-0.058;2023-08-06T10:01:08;2;2;
56069;PMS5003;41944;52.078;-0.058;2023-08-06T10:03:37;3;3;
56069;PMS5003;41944;52.078;-0.058;2023-08-06T10:06:06;4;3;
56069;PMS5003;41944;52.078;-0.058;2023-08-06T10:08:34;5;2;
56069;PMS5003;41944;52.078;-0.058;2023-08-06T10:11:02;2;2;
56069;PMS5003;41944;52.078;-0.058;2023-08-06T10:13:31;1;1;
56069;PMS5003;41944;52.078;-0.058;2023-08-06T10:16:01;4;2;
56069;PMS5003;41944;52.078;-0.058;2023-08-06T10:18:30;2;2;
56069;PMS5003;41944;52.078;-0.058;2023-08-06T10:20:59;2;2;
56069;PMS5003;41944;52.078;-0.058;2023-08-06T10:23:33;2;2;
56069;PMS5003;41944;52.078;-0.058;2023-08-06T10:26:00;4;3;
56069;PMS5003;41944;52.078;-0.058;2023-08-06T10:28:33;2;2;
56069;PMS5003;41944;52.078;-0.058;2023-08-06T10:31:03;4;4;
56069;PMS5003;41944;52.078;-0.058;2023-08-06T10:33:47;3;2;
56069;PMS5003;41944;52.078;-0.058;2023-08-06T10:36:14;2;0;
56069;PMS5003;41944;52.078;-0.058;2023-08-06T10:38:46;3;3;
56069;PMS5003;41944;52.078;-0.058;2023-08-06T10:41:15;3;3;
56069;PMS5003;41944;52.078;-0.058;2023-08-06T10:43:48;2;2;
56069;PMS5003;41944;52.078;-0.058;2023-08-06T10:46:21;3;3;
56069;PMS5003;41944;52.078;-0.058;2023-08-06T10:48:49;1;1;
56069;PMS5003;41944;52.078;-0.058;2023-08-06T10:51:17;2;2;
56069;PMS5003;41944;52.078;-0.058;2023-08-06T10:53:44;3;3;
56069;PMS5003;41944;52.078;-0.058;2023-08-06T10:56:13;3;3;
56069;PMS5003;41944;52.078;-0.058;2023-08-06T10:58:40;2;2;
56069;PMS5003;41944;52.078;-0.058;2023-08-06T11:01:08;4;3;
56069;PMS5003;41944;52.078;-0.058;2023-08-06T11:03:37;2;2;
56069;PMS5003;41944;52.078;-0.058;2023-08-06T11:06:05;3;3;
56069;PMS5003;41944;52.078;-0.058;2023-08-06T11:08:34;1;1;
56069;PMS5003;41944;52.078;-0.058;2023-08-06T11:11:11;2;2;
56069;PMS5003;41944;52.078;-0.058;2023-08-06T11:13:39;3;3;
56069;PMS5003;41944;52.078;-0.058;2023-08-06T11:16:06;2;2;
56069;PMS5003;41944;52.078;-0.058;2023-08-06T11:18:34;1;1;
56069;PMS5003;41944;52.078;-0.058;2023-08-06T11:21:02;4;4;
56069;PMS5003;41944;52.078;-0.058;2023-08-06T11:23:29;4;2;
56069;PMS5003;41944;52.078;-0.058;2023-08-06T11:25:57;3;2;
56069;PMS5003;41944;52.078;-0.058;2023-08-06T11:28:24;3;2;
56069;PMS5003;41944;52.078;-0.058;2023-08-06T11:30:52;3;3;
56069;PMS5003;41944;52.078;-0.058;2023-08-06T11:33:20;4;3;
56069;PMS5003;41944;52.078;-0.058;2023-08-06T11:35:47;1;1;
56069;PMS5003;41944;52.078;-0.058;2023-08-06T11:38:15;2;2;
56069;PMS5003;41944;52.078;-0.058;2023-08-06T11:40:43;3;3;
56069;PMS5003;41944;52.078;-0.058;2023-08-06T11:43:10;1;1;
56069;PMS5003;41944;52.078;-0.058;2023-08-06T11:45:38;2;2;
56069;PMS5003;41944;52.078;-0.058;2023-08-06T11:48:05;3;3;
56069;PMS5003;41944;52.078;-0.058;2023-08-06T11:50:35;1;1;
56069;PMS5003;41944;52.078;-0.058;2023-08-06T11:53:04;1;1;
56069;PMS5003;41944;52.078;-0.058;2023-08-06T11:55:32;2;2;
56069;PMS5003;41944;52.078;-0.058;2023-08-06T11:58:02;4;4;
56069;PMS5003;41944;52.078;-0.058;2023-08-06T12:00:29;4;2;
56069;PMS5003;41944;52.078;-0.058;2023-08-06T12:02:57;3;3;
56069;PMS5003;41944;52.078;-0.058;2023-08-06T12:05:29;3;3;
56069;PMS5003;41944;52.078;-0.058;2023-08-06T12:07:57;3;3;
56069;PMS5003;41944;52.078;-0.058;2023-08-06T12:10:26;4;3;
56069;PMS5003;41944;52.078;-0.058;2023-08-06T12:12:54;3;3;
56069;PMS5003;41944;52.078;-0.058;2023-08-06T12:15:22;3;3;
56069;PMS5003;41944;52.078;-0.058;2023-08-06T12:17:50;3;3;
56069;PMS5003;41944;52.078;-0.058;2023-08-06T12:20:17;3;3;
56069;PMS5003;41944;52.078;-0.058;2023-08-06T12:22:44;3;3;
56069;PMS5003;41944;52.078;-0.058;2023-08-06T12:25:11;3;3;
56069;PMS5003;41944;52.078;-0.058;2023-08-06T12:27:39;2;2;
56069;PMS5003;41944;52.078;-0.058;2023-08-06T12:30:08;2;2;
56069;PMS5003;41944;52.078;-0.058;2023-08-06T12:32:36;3;3;
56069;PMS5003;41944;52.078;-0.058;2023-08-06T12:35:04;6;3;
56069;PMS5003;41944;52.078;-0.058;2023-08-06T12:37:32;2;2;
56069;PMS5003;41944;52.078;-0.058;2023-08-06T12:40:00;3;3;
56069;PMS5003;41944;52.078;-0.058;2023-08-06T12:42:27;3;3;
56069;PMS5003;41944;52.078;-0.058;2023-08-06T12:44:54;3;3;
56069;PMS5003;41944;52.078;-0.058;2023-08-06T12:47:21;2;1;
56069;PMS5003;41944;52.078;-0.058;2023-08-06T12:49:48;3;3;
56069;PMS5003;41944;52.078;-0.058;2023-08-06T12:52:16;5;3;
56069;PMS5003;41944;52.078;-0.058;2023-08-06T12:54:42;3;3;
56069;PMS5003;41944;52.078;-0.058;2023-08-06T12:57:09;4;3;
56069;PMS5003;41944;52.078;-0.058;2023-08-06T12:59:36;4;4;
56069;PMS5003;41944;52.078;-0.058;2023-08-06T13:02:03;3;2;
56069;PMS5003;41944;52.078;-0.058;2023-08-06T13:04:31;3;3;
56069;PMS5003;41944;52.078;-0.058;2023-08-06T13:06:58;2;2;
56069;PMS5003;41944;52.078;-0.058;2023-08-06T13:09:25;3;3;
56069;PMS5003;41944;52.078;-0.058;2023-08-06T13:11:51;2;2;
56069;PMS5003;41944;52.078;-0.058;2023-08-06T13:14:18;3;3;
56069;PMS5003;41944;52.078;-0.058;2023-08-06T13:16:46;4;2;
56069;PMS5003;41944;52.078;-0.058;2023-08-06T13:19:14;3;2;
56069;PMS5003;41944;52.078;-0.058;2023-08-06T13:22:13;3;3;
56069;PMS5003;41944;52.078;-0.058;2023-08-06T13:24:40;2;2;
56069;PMS5003;41944;52.078;-0.058;2023-08-06T13:27:07;2;2;
56069;PMS5003;41944;52.078;-0.058;2023-08-06T13:29:34;3;3;
56069;PMS5003;41944;52.078;-0.058;2023-08-06T13:32:01;3;3;
56069;PMS5003;41944;52.078;-0.058;2023-08-06T13:34:28;4;3;
56069;PMS5003;41944;52.078;-0.058;2023-08-06T13:36:55;1;1;
56069;PMS5003;41944;52.078;-0.058;2023-08-06T13:39:22;4;1;
56069;PMS5003;41944;52.078;-0.058;2023-08-06T13:41:49;2;2;
56069;PMS5003;41944;52.078;-0.058;2023-08-06T13:44:16;2;2;
56069;PMS5003;41944;52.078;-0.058;2023-08-06T13:46:43;2;2;
56069;PMS5003;41944;52.078;-0.058;2023-08-06T13:49:10;4;3;
56069;PMS5003;41944;52.078;-0.058;2023-08-06T13:51:38;3;2;
56069;PMS5003;41944;52.078;-0.058;2023-08-06T13:54:05;3;3;
56069;PMS5003;41944;52.078;-0.058;2023-08-06T13:56:34;1;1;
56069;PMS5003;41944;52.078;-0.058;2023-08-06T13:59:02;3;3;
56069;PMS5003;41944;52.078;-0.058;2023-08-06T14:01:29;2;2;
56069;PMS5003;41944;52.078;-0.058;2023-08-06T14:03:56;3;3;
56069;PMS5003;41944;52.078;-0.058;2023-08-06T14:06:23;5;5;
56069;PMS5003;41944;52.078;-0.058;2023-08-06T14:08:50;3;3;
56069;PMS5003;41944;52.078;-0.058;2023-08-06T14:11:17;5;5;
56069;PMS5003;41944;52.078;-0.058;2023-08-06T14:13:43;3;3;
56069;PMS5003;41944;52.078;-0.058;2023-08-06T14:16:10;5;5;
56069;PMS5003;41944;52.078;-0.058;2023-08-06T14:18:37;4;4;
56069;PMS5003;41944;52.078;-0.058;2023-08-06T14:21:04;5;5;
56069;PMS5003;41944;52.078;-0.058;2023-08-06T14:23:32;6;6;
56069;PMS5003;41944;52.078;-0.058;2023-08-06T14:25:58;3;3;
56069;PMS5003;41944;52.078;-0.058;2023-08-06T14:28:25;4;4;
56069;PMS5003;41944;52.078;-0.058;2023-08-06T14:30:52;2;2;
56069;PMS5003;41944;52.078;-0.058;2023-08-06T14:33:19;5;4;
56069;PMS5003;41944;52.078;-0.058;2023-08-06T14:35:46;7;4;
56069;PMS5003;41944;52.078;-0.058;2023-08-06T14:38:13;2;2;
56069;PMS5003;41944;52.078;-0.058;2023-08-06T14:40:40;2;2;
56069;PMS5003;41944;52.078;-0.058;2023-08-06T14:43:07;3;3;
56069;PMS5003;41944;52.078;-0.058;2023-08-06T14:45:37;3;3;
56069;PMS5003;41944;52.078;-0.058;2023-08-06T14:48:04;4;4;
56069;PMS5003;41944;52.078;-0.058;2023-08-06T14:50:31;6;3;
56069;PMS5003;41944;52.078;-0.058;2023-08-06T14:52:58;2;2;
56069;PMS5003;41944;52.078;-0.058;2023-08-06T14:55:25;5;3;
56069;PMS5003;41944;52.078;-0.058;2023-08-06T14:57:53;4;4;
56069;PMS5003;41944;52.078;-0.058;2023-08-06T15:00:20;2;2;
56069;PMS5003;41944;52.078;-0.058;2023-08-06T15:02:47;3;3;
56069;PMS5003;41944;52.078;-0.058;2023-08-06T15:05:13;3;3;
56069;PMS5003;41944;52.078;-0.058;2023-08-06T15:07:40;2;2;
56069;PMS5003;41944;52.078;-0.058;2023-08-06T15:10:07;2;2;
56069;PMS5003;41944;52.078;-0.058;2023-08-06T15:12:35;2;2;
56069;PMS5003;41944;52.078;-0.058;2023-08-06T15:15:02;2;2;
56069;PMS5003;41944;52.078;-0.058;2023-08-06T15:17:30;4;2;
56069;PMS5003;41944;52.078;-0.058;2023-08-06T15:19:57;3;2;
56069;PMS5003;41944;52.078;-0.058;2023-08-06T15:22:25;3;3;
56069;PMS5003;41944;52.078;-0.058;2023-08-06T15:24:53;5;3;
56069;PMS5003;41944;52.078;-0.058;2023-08-06T15:27:21;5;4;
56069;PMS5003;41944;52.078;-0.058;2023-08-06T15:29:48;1;1;
56069;PMS5003;41944;52.078;-0.058;2023-08-06T15:32:15;2;1;
56069;PMS5003;41944;52.078;-0.058;2023-08-06T15:34:42;2;2;
56069;PMS5003;41944;52.078;-0.058;2023-08-06T15:37:09;3;3;
56069;PMS5003;41944;52.078;-0.058;2023-08-06T15:39:35;1;1;
56069;PMS5003;41944;52.078;-0.058;2023-08-06T15:42:03;1;1;
56069;PMS5003;41944;52.078;-0.058;2023-08-06T15:44:31;2;2;
56069;PMS5003;41944;52.078;-0.058;2023-08-06T15:46:58;2;2;
56069;PMS5003;41944;52.078;-0.058;2023-08-06T15:49:25;3;3;
56069;PMS5003;41944;52.078;-0.058;2023-08-06T15:51:51;3;3;
56069;PMS5003;41944;52.078;-0.058;2023-08-06T15:54:18;2;2;
56069;PMS5003;41944;52.078;-0.058;2023-08-06T15:56:45;3;3;
56069;PMS5003;41944;52.078;-0.058;2023-08-06T15:59:28;1;1;
56069;PMS5003;41944;52.078;-0.058;2023-08-06T16:01:57;5;3;
56069;PMS5003;41944;52.078;-0.058;2023-08-06T16:04:25;3;3;
56069;PMS5003;41944;52.078;-0.058;2023-08-06T16:06:52;3;3;
56069;PMS5003;41944;52.078;-0.058;2023-08-06T16:09:19;3;3;
56069;PMS5003;41944;52.078;-0.058;2023-08-06T16:11:47;1;1;
56069;PMS5003;41944;52.078;-0.058;2023-08-06T16:14:15;3;1;
56069;PMS5003;41944;52.078;-0.058;2023-08-06T16:16:42;1;1;
56069;PMS5003;41944;52.078;-0.058;2023-08-06T16:19:08;3;3;
56069;PMS5003;41944;52.078;-0.058;2023-08-06T16:21:35;2;2;
56069;PMS5003;41944;52.078;-0.058;2023-08-06T16:24:03;3;2;
56069;PMS5003;41944;52.078;-0.058;2023-08-06T16:26:32;2;2;
56069;PMS5003;41944;52.078;-0.058;2023-08-06T16:28:59;2;2;
56069;PMS5003;41944;52.078;-0.058;2023-08-06T16:31:26;3;3;
56069;PMS5003;41944;52.078;-0.058;2023-08-06T16:33:53;2;2;
56069;PMS5003;41944;52.078;-0.058;2023-08-06T16:36:20;3;2;